sensor_id;sensor_type;location;lat;lon;timestamp;P1;durP1;ratioP1;P2;durP2;ratioP2
50379;SDS011;37474;59.468;18.040;2023-11-19T00:01:33;2.43;;;1.90;;
50379;SDS011;37474;59.468;18.040;2023-11-19T00:04:02;4.27;;;2.70;;
50379;SDS011;37474;59.468;18.040;2023-11-19T00:06:31;3.40;;;2.10;;
50379;SDS011;37474;59.468;18.040;2023-11-19T00:08:59;3.50;;;2.57;;
50379;SDS011;37474;59.468;18.040;2023-11-19T00:11:29;2.77;;;2.20;;
50379;SDS011;37474;59.468;18.040;2023-11-19T00:13:57;3.85;;;2.20;;
50379;SDS011;37474;59.468;18.040;2023-11-19T00:16:25;2.93;;;2.27;;
50379;SDS011;37474;59.468;18.040;2023-11-19T00:18:53;2.27;;;1.90;;
50379;SDS011;37474;59.468;18.040;2023-11-19T00:21:21;3.57;;;2.00;;
50379;SDS011;37474;59.468;18.040;2023-11-19T00:23:49;3.40;;;2.40;;
50379;SDS011;37474;59.468;18.040;2023-11-19T00:26:21;3.17;;;2.33;;
50379;SDS011;37474;59.468;18.040;2023-11-19T00:28:50;3.07;;;2.10;;
50379;SDS011;37474;59.468;18.040;2023-11-19T00:31:19;4.20;;;2.30;;
50379;SDS011;37474;59.468;18.040;2023-11-19T00:33:47;2.30;;;1.93;;
50379;SDS011;37474;59.468;18.040;2023-11-19T00:36:16;2.20;;;1.73;;
50379;SDS011;37474;59.468;18.040;2023-11-19T00:38:44;3.50;;;2.47;;
50379;SDS011;37474;59.468;18.040;2023-11-19T00:41:12;3.03;;;2.03;;
50379;SDS011;37474;59.468;18.040;2023-11-19T00:43:42;5.78;;;2.70;;
50379;SDS011;37474;59.468;18.040;2023-11-19T00:46:11;2.80;;;2.10;;
50379;SDS011;37474;59.468;18.040;2023-11-19T00:48:40;6.47;;;2.85;;
50379;SDS011;37474;59.468;18.040;2023-11-19T00:51:08;3.13;;;2.30;;
50379;SDS011;37474;59.468;18.040;2023-11-19T00:53:39;4.97;;;3.23;;
50379;SDS011;37474;59.468;18.040;2023-11-19T00:56:07;4.80;;;2.17;;
50379;SDS011;37474;59.468;18.040;2023-11-19T00:58:35;4.27;;;2.30;;
50379;SDS011;37474;59.468;18.040;2023-11-19T01:01:03;3.30;;;2.00;;
50379;SDS011;37474;59.468;18.040;2023-11-19T01:03:33;4.30;;;2.57;;
50379;SDS011;37474;59.468;18.040;2023-11-19T01:06:01;3.20;;;2.20;;
50379;SDS011;37474;59.468;18.040;2023-11-19T01:08:32;3.10;;;2.20;;
50379;SDS011;37474;59.468;18.040;2023-11-19T01:11:02;3.47;;;1.87;;
50379;SDS011;37474;59.468;18.040;2023-11-19T01:13:30;3.50;;;2.47;;
50379;SDS011;37474;59.468;18.040;2023-11-19T01:15:58;3.00;;;2.13;;
50379;SDS011;37474;59.468;18.040;2023-11-19T01:18:29;2.75;;;1.95;;
50379;SDS011;37474;59.468;18.040;2023-11-19T01:20:58;2.80;;;1.93;;
50379;SDS011;37474;59.468;18.040;2023-11-19T01:23:26;2.67;;;2.10;;
50379;SDS011;37474;59.468;18.040;2023-11-19T01:25:56;2.67;;;2.17;;
50379;SDS011;37474;59.468;18.040;2023-11-19T01:28:24;3.57;;;2.30;;
50379;SDS011;37474;59.468;18.040;2023-11-19T01:30:52;4.17;;;2.70;;
50379;SDS011;37474;59.468;18.040;2023-11-19T01:33:20;4.83;;;2.30;;
50379;SDS011;37474;59.468;18.040;2023-11-19T01:35:49;2.70;;;2.17;;
50379;SDS011;37474;59.468;18.040;2023-11-19T01:38:18;2.87;;;2.07;;
50379;SDS011;37474;59.468;18.040;2023-11-19T01:40:46;2.87;;;2.33;;
50379;SDS011;37474;59.468;18.040;2023-11-19T01:46:00;2.90;;;2.10;;
50379;SDS011;37474;59.468;18.040;2023-11-19T01:48:29;2.70;;;2.07;;
50379;SDS011;37474;59.468;18.040;2023-11-19T01:51:00;3.07;;;2.33;;
50379;SDS011;37474;59.468;18.040;2023-11-19T01:53:30;3.00;;;2.40;;
50379;SDS011;37474;59.468;18.040;2023-11-19T01:55:59;3.28;;;2.70;;
50379;SDS011;37474;59.468;18.040;2023-11-19T01:58:28;4.50;;;2.63;;
50379;SDS011;37474;59.468;18.040;2023-11-19T02:00:57;2.90;;;2.50;;
50379;SDS011;37474;59.468;18.040;2023-11-19T02:03:26;3.13;;;2.77;;
50379;SDS011;37474;59.468;18.040;2023-11-19T02:05:56;3.10;;;2.40;;
50379;SDS011;37474;59.468;18.040;2023-11-19T02:08:24;2.60;;;2.40;;
50379;SDS011;37474;59.468;18.040;2023-11-19T02:10:54;2.70;;;2.30;;
50379;SDS011;37474;59.468;18.040;2023-11-19T02:13:23;3.63;;;2.63;;
50379;SDS011;37474;59.468;18.040;2023-11-19T02:15:52;3.50;;;2.60;;
50379;SDS011;37474;59.468;18.040;2023-11-19T02:18:22;2.92;;;2.45;;
50379;SDS011;37474;59.468;18.040;2023-11-19T02:20:54;4.37;;;2.43;;
50379;SDS011;37474;59.468;18.040;2023-11-19T02:23:23;3.10;;;2.53;;
50379;SDS011;37474;59.468;18.040;2023-11-19T02:25:57;7.70;;;2.30;;
50379;SDS011;37474;59.468;18.040;2023-11-19T02:28:33;2.95;;;2.25;;
50379;SDS011;37474;59.468;18.040;2023-11-19T02:31:03;2.20;;;2.00;;
50379;SDS011;37474;59.468;18.040;2023-11-19T02:33:36;3.90;;;2.33;;
50379;SDS011;37474;59.468;18.040;2023-11-19T02:36:05;5.60;;;2.30;;
50379;SDS011;37474;59.468;18.040;2023-11-19T02:38:34;2.80;;;2.30;;
50379;SDS011;37474;59.468;18.040;2023-11-19T02:41:03;3.20;;;2.30;;
50379;SDS011;37474;59.468;18.040;2023-11-19T02:43:34;3.08;;;2.50;;
50379;SDS011;37474;59.468;18.040;2023-11-19T02:46:03;3.15;;;2.50;;
50379;SDS011;37474;59.468;18.040;2023-11-19T02:48:37;3.93;;;2.47;;
50379;SDS011;37474;59.468;18.040;2023-11-19T02:51:05;3.07;;;2.60;;
50379;SDS011;37474;59.468;18.040;2023-11-19T02:53:36;4.57;;;2.40;;
50379;SDS011;37474;59.468;18.040;2023-11-19T02:56:07;5.35;;;3.00;;
50379;SDS011;37474;59.468;18.040;2023-11-19T02:58:44;3.13;;;2.63;;
50379;SDS011;37474;59.468;18.040;2023-11-19T03:01:12;3.63;;;2.20;;
50379;SDS011;37474;59.468;18.040;2023-11-19T03:03:50;2.37;;;2.17;;
50379;SDS011;37474;59.468;18.040;2023-11-19T03:06:21;3.20;;;2.20;;
50379;SDS011;37474;59.468;18.040;2023-11-19T03:08:49;3.27;;;2.40;;
50379;SDS011;37474;59.468;18.040;2023-11-19T03:11:18;4.23;;;2.43;;
50379;SDS011;37474;59.468;18.040;2023-11-19T03:13:47;3.90;;;2.33;;
50379;SDS011;37474;59.468;18.040;2023-11-19T03:16:15;3.60;;;2.70;;
50379;SDS011;37474;59.468;18.040;2023-11-19T03:18:44;3.93;;;2.40;;
50379;SDS011;37474;59.468;18.040;2023-11-19T03:21:12;3.50;;;2.33;;
50379;SDS011;37474;59.468;18.040;2023-11-19T03:24:12;3.13;;;2.07;;
50379;SDS011;37474;59.468;18.040;2023-11-19T03:26:41;3.40;;;2.33;;
50379;SDS011;37474;59.468;18.040;2023-11-19T03:29:11;2.53;;;1.97;;
50379;SDS011;37474;59.468;18.040;2023-11-19T03:31:41;2.17;;;1.75;;
50379;SDS011;37474;59.468;18.040;2023-11-19T03:34:10;1.90;;;1.60;;
50379;SDS011;37474;59.468;18.040;2023-11-19T03:36:38;2.27;;;1.50;;
50379;SDS011;37474;59.468;18.040;2023-11-19T03:39:06;2.57;;;1.70;;
50379;SDS011;37474;59.468;18.040;2023-11-19T03:41:34;2.80;;;1.60;;
50379;SDS011;37474;59.468;18.040;2023-11-19T03:44:05;1.63;;;1.40;;
50379;SDS011;37474;59.468;18.040;2023-11-19T03:46:35;2.40;;;1.73;;
50379;SDS011;37474;59.468;18.040;2023-11-19T03:49:06;2.00;;;1.70;;
50379;SDS011;37474;59.468;18.040;2023-11-19T03:51:34;2.17;;;1.50;;
50379;SDS011;37474;59.468;18.040;2023-11-19T03:54:02;2.60;;;2.00;;
50379;SDS011;37474;59.468;18.040;2023-11-19T03:56:31;2.00;;;1.60;;
50379;SDS011;37474;59.468;18.040;2023-11-19T03:58:59;2.33;;;1.83;;
50379;SDS011;37474;59.468;18.040;2023-11-19T04:01:27;2.43;;;1.80;;
50379;SDS011;37474;59.468;18.040;2023-11-19T04:03:56;2.13;;;1.60;;
50379;SDS011;37474;59.468;18.040;2023-11-19T04:06:25;2.42;;;1.60;;
50379;SDS011;37474;59.468;18.040;2023-11-19T04:08:53;2.13;;;1.70;;
50379;SDS011;37474;59.468;18.040;2023-11-19T04:11:21;2.33;;;1.90;;
50379;SDS011;37474;59.468;18.040;2023-11-19T04:13:49;3.10;;;1.70;;
50379;SDS011;37474;59.468;18.040;2023-11-19T04:16:17;2.60;;;1.70;;
50379;SDS011;37474;59.468;18.040;2023-11-19T04:18:45;2.07;;;1.73;;
50379;SDS011;37474;59.468;18.040;2023-11-19T04:21:16;1.95;;;1.70;;
50379;SDS011;37474;59.468;18.040;2023-11-19T04:23:44;2.55;;;1.90;;
50379;SDS011;37474;59.468;18.040;2023-11-19T04:26:12;2.37;;;1.70;;
50379;SDS011;37474;59.468;18.040;2023-11-19T04:28:42;2.20;;;2.00;;
50379;SDS011;37474;59.468;18.040;2023-11-19T04:31:10;2.70;;;1.80;;
50379;SDS011;37474;59.468;18.040;2023-11-19T04:33:38;3.77;;;1.97;;
50379;SDS011;37474;59.468;18.040;2023-11-19T04:36:06;2.33;;;1.93;;
50379;SDS011;37474;59.468;18.040;2023-11-19T04:38:36;2.80;;;2.17;;
50379;SDS011;37474;59.468;18.040;2023-11-19T04:41:05;2.17;;;1.90;;
50379;SDS011;37474;59.468;18.040;2023-11-19T04:43:33;4.20;;;2.07;;
50379;SDS011;37474;59.468;18.040;2023-11-19T04:46:03;2.67;;;2.30;;
50379;SDS011;37474;59.468;18.040;2023-11-19T04:48:31;3.22;;;2.17;;
50379;SDS011;37474;59.468;18.040;2023-11-19T04:51:04;3.90;;;1.93;;
50379;SDS011;37474;59.468;18.040;2023-11-19T04:53:32;5.10;;;2.43;;
50379;SDS011;37474;59.468;18.040;2023-11-19T04:56:02;6.53;;;2.40;;
50379;SDS011;37474;59.468;18.040;2023-11-19T04:58:35;4.03;;;2.40;;
50379;SDS011;37474;59.468;18.040;2023-11-19T05:01:04;3.37;;;2.40;;
50379;SDS011;37474;59.468;18.040;2023-11-19T05:03:32;4.67;;;2.50;;
50379;SDS011;37474;59.468;18.040;2023-11-19T05:06:00;3.60;;;2.20;;
50379;SDS011;37474;59.468;18.040;2023-11-19T05:08:28;3.23;;;2.17;;
50379;SDS011;37474;59.468;18.040;2023-11-19T05:10:56;2.17;;;1.80;;
50379;SDS011;37474;59.468;18.040;2023-11-19T05:13:27;2.50;;;2.00;;
50379;SDS011;37474;59.468;18.040;2023-11-19T05:15:55;2.60;;;1.90;;
50379;SDS011;37474;59.468;18.040;2023-11-19T05:18:23;4.17;;;2.00;;
50379;SDS011;37474;59.468;18.040;2023-11-19T05:20:51;2.73;;;2.10;;
50379;SDS011;37474;59.468;18.040;2023-11-19T05:23:19;3.00;;;1.90;;
50379;SDS011;37474;59.468;18.040;2023-11-19T05:25:47;2.00;;;1.80;;
50379;SDS011;37474;59.468;18.040;2023-11-19T05:28:16;2.13;;;1.67;;
50379;SDS011;37474;59.468;18.040;2023-11-19T05:30:45;2.23;;;1.90;;
50379;SDS011;37474;59.468;18.040;2023-11-19T05:33:13;3.88;;;2.50;;
50379;SDS011;37474;59.468;18.040;2023-11-19T05:35:41;3.50;;;2.00;;
50379;SDS011;37474;59.468;18.040;2023-11-19T05:38:09;3.17;;;1.70;;
50379;SDS011;37474;59.468;18.040;2023-11-19T05:40:37;2.90;;;1.90;;
50379;SDS011;37474;59.468;18.040;2023-11-19T05:43:06;3.47;;;1.83;;
50379;SDS011;37474;59.468;18.040;2023-11-19T05:45:34;2.10;;;1.67;;
50379;SDS011;37474;59.468;18.040;2023-11-19T05:48:03;3.83;;;1.97;;
50379;SDS011;37474;59.468;18.040;2023-11-19T05:50:31;2.50;;;1.80;;
50379;SDS011;37474;59.468;18.040;2023-11-19T05:52:59;3.80;;;2.10;;
50379;SDS011;37474;59.468;18.040;2023-11-19T05:55:27;2.07;;;1.70;;
50379;SDS011;37474;59.468;18.040;2023-11-19T05:57:56;3.20;;;1.67;;
50379;SDS011;37474;59.468;18.040;2023-11-19T06:00:24;4.63;;;2.13;;
50379;SDS011;37474;59.468;18.040;2023-11-19T06:02:53;3.50;;;1.90;;
50379;SDS011;37474;59.468;18.040;2023-11-19T06:05:22;2.00;;;1.70;;
50379;SDS011;37474;59.468;18.040;2023-11-19T06:07:50;2.27;;;1.77;;
50379;SDS011;37474;59.468;18.040;2023-11-19T06:10:19;3.03;;;1.90;;
50379;SDS011;37474;59.468;18.040;2023-11-19T06:12:47;2.63;;;1.90;;
50379;SDS011;37474;59.468;18.040;2023-11-19T06:15:22;3.57;;;2.00;;
50379;SDS011;37474;59.468;18.040;2023-11-19T06:17:50;3.03;;;1.97;;
50379;SDS011;37474;59.468;18.040;2023-11-19T06:20:18;2.67;;;1.87;;
50379;SDS011;37474;59.468;18.040;2023-11-19T06:22:48;2.87;;;1.80;;
50379;SDS011;37474;59.468;18.040;2023-11-19T06:25:16;3.47;;;2.15;;
50379;SDS011;37474;59.468;18.040;2023-11-19T06:27:45;3.50;;;2.20;;
50379;SDS011;37474;59.468;18.040;2023-11-19T06:30:13;2.60;;;2.20;;
50379;SDS011;37474;59.468;18.040;2023-11-19T06:32:41;3.03;;;1.90;;
50379;SDS011;37474;59.468;18.040;2023-11-19T06:35:09;6.37;;;2.57;;
50379;SDS011;37474;59.468;18.040;2023-11-19T06:37:38;4.50;;;3.03;;
50379;SDS011;37474;59.468;18.040;2023-11-19T06:40:09;4.70;;;3.00;;
50379;SDS011;37474;59.468;18.040;2023-11-19T06:42:38;4.53;;;3.40;;
50379;SDS011;37474;59.468;18.040;2023-11-19T06:45:06;4.83;;;3.20;;
50379;SDS011;37474;59.468;18.040;2023-11-19T06:47:37;5.60;;;3.47;;
50379;SDS011;37474;59.468;18.040;2023-11-19T06:50:08;5.60;;;3.00;;
50379;SDS011;37474;59.468;18.040;2023-11-19T06:52:36;3.77;;;2.80;;
50379;SDS011;37474;59.468;18.040;2023-11-19T06:55:05;5.77;;;3.63;;
50379;SDS011;37474;59.468;18.040;2023-11-19T06:57:36;7.60;;;4.80;;
50379;SDS011;37474;59.468;18.040;2023-11-19T07:00:05;9.93;;;5.83;;
50379;SDS011;37474;59.468;18.040;2023-11-19T07:02:35;6.47;;;4.03;;
50379;SDS011;37474;59.468;18.040;2023-11-19T07:05:03;5.60;;;3.53;;
50379;SDS011;37474;59.468;18.040;2023-11-19T07:07:32;3.50;;;2.60;;
50379;SDS011;37474;59.468;18.040;2023-11-19T07:10:00;3.90;;;2.57;;
50379;SDS011;37474;59.468;18.040;2023-11-19T07:12:28;4.37;;;2.90;;
50379;SDS011;37474;59.468;18.040;2023-11-19T07:14:58;3.90;;;2.50;;
50379;SDS011;37474;59.468;18.040;2023-11-19T07:17:26;3.53;;;2.50;;
50379;SDS011;37474;59.468;18.040;2023-11-19T07:19:54;4.23;;;2.23;;
50379;SDS011;37474;59.468;18.040;2023-11-19T07:22:25;4.43;;;2.37;;
50379;SDS011;37474;59.468;18.040;2023-11-19T07:24:56;3.83;;;2.20;;
50379;SDS011;37474;59.468;18.040;2023-11-19T07:27:25;3.27;;;2.40;;
50379;SDS011;37474;59.468;18.040;2023-11-19T07:29:54;2.80;;;2.33;;
50379;SDS011;37474;59.468;18.040;2023-11-19T07:32:24;4.03;;;2.30;;
50379;SDS011;37474;59.468;18.040;2023-11-19T07:34:52;3.28;;;2.42;;
50379;SDS011;37474;59.468;18.040;2023-11-19T07:37:20;4.17;;;2.73;;
50379;SDS011;37474;59.468;18.040;2023-11-19T07:39:48;4.50;;;2.67;;
50379;SDS011;37474;59.468;18.040;2023-11-19T07:42:16;4.63;;;2.57;;
50379;SDS011;37474;59.468;18.040;2023-11-19T07:44:44;5.20;;;2.70;;
50379;SDS011;37474;59.468;18.040;2023-11-19T07:47:12;3.40;;;2.53;;
50379;SDS011;37474;59.468;18.040;2023-11-19T07:49:42;2.67;;;2.10;;
50379;SDS011;37474;59.468;18.040;2023-11-19T07:54:42;3.40;;;2.13;;
50379;SDS011;37474;59.468;18.040;2023-11-19T07:57:10;8.17;;;2.07;;
50379;SDS011;37474;59.468;18.040;2023-11-19T07:59:38;3.23;;;2.43;;
50379;SDS011;37474;59.468;18.040;2023-11-19T08:02:06;2.70;;;2.10;;
50379;SDS011;37474;59.468;18.040;2023-11-19T08:04:34;4.03;;;2.17;;
50379;SDS011;37474;59.468;18.040;2023-11-19T08:07:04;4.07;;;2.27;;
50379;SDS011;37474;59.468;18.040;2023-11-19T08:09:32;3.55;;;2.33;;
50379;SDS011;37474;59.468;18.040;2023-11-19T08:12:00;5.30;;;3.20;;
50379;SDS011;37474;59.468;18.040;2023-11-19T08:14:28;7.20;;;2.90;;
50379;SDS011;37474;59.468;18.040;2023-11-19T08:16:56;5.93;;;3.23;;
50379;SDS011;37474;59.468;18.040;2023-11-19T08:19:24;6.47;;;3.47;;
50379;SDS011;37474;59.468;18.040;2023-11-19T08:21:57;4.27;;;3.07;;
50379;SDS011;37474;59.468;18.040;2023-11-19T08:24:26;5.47;;;3.07;;
50379;SDS011;37474;59.468;18.040;2023-11-19T08:26:54;7.33;;;3.30;;
50379;SDS011;37474;59.468;18.040;2023-11-19T08:29:25;6.20;;;3.03;;
50379;SDS011;37474;59.468;18.040;2023-11-19T08:31:54;4.20;;;2.70;;
50379;SDS011;37474;59.468;18.040;2023-11-19T08:34:22;3.93;;;2.80;;
50379;SDS011;37474;59.468;18.040;2023-11-19T08:36:52;4.57;;;2.97;;
50379;SDS011;37474;59.468;18.040;2023-11-19T08:39:20;4.97;;;3.37;;
50379;SDS011;37474;59.468;18.040;2023-11-19T08:41:50;3.93;;;2.83;;
50379;SDS011;37474;59.468;18.040;2023-11-19T08:44:18;4.88;;;3.45;;
50379;SDS011;37474;59.468;18.040;2023-11-19T08:46:47;5.00;;;3.50;;
50379;SDS011;37474;59.468;18.040;2023-11-19T08:49:15;4.67;;;3.30;;
50379;SDS011;37474;59.468;18.040;2023-11-19T08:51:43;6.93;;;4.43;;
50379;SDS011;37474;59.468;18.040;2023-11-19T08:54:11;18.07;;;9.17;;
50379;SDS011;37474;59.468;18.040;2023-11-19T08:56:40;32.80;;;15.07;;
50379;SDS011;37474;59.468;18.040;2023-11-19T08:59:10;17.63;;;9.57;;
50379;SDS011;37474;59.468;18.040;2023-11-19T09:01:38;11.23;;;6.40;;
50379;SDS011;37474;59.468;18.040;2023-11-19T09:04:05;5.77;;;3.50;;
50379;SDS011;37474;59.468;18.040;2023-11-19T09:06:35;10.17;;;3.47;;
50379;SDS011;37474;59.468;18.040;2023-11-19T09:09:03;4.18;;;2.90;;
50379;SDS011;37474;59.468;18.040;2023-11-19T09:11:32;3.00;;;2.57;;
50379;SDS011;37474;59.468;18.040;2023-11-19T09:14:00;6.07;;;2.73;;
50379;SDS011;37474;59.468;18.040;2023-11-19T09:16:29;4.67;;;2.43;;
50379;SDS011;37474;59.468;18.040;2023-11-19T09:18:57;10.27;;;4.97;;
50379;SDS011;37474;59.468;18.040;2023-11-19T09:21:25;3.63;;;2.57;;
50379;SDS011;37474;59.468;18.040;2023-11-19T09:23:54;4.60;;;3.10;;
50379;SDS011;37474;59.468;18.040;2023-11-19T09:26:24;5.45;;;2.97;;
50379;SDS011;37474;59.468;18.040;2023-11-19T09:28:52;3.20;;;2.70;;
50379;SDS011;37474;59.468;18.040;2023-11-19T09:31:19;5.57;;;3.83;;
50379;SDS011;37474;59.468;18.040;2023-11-19T09:33:49;6.50;;;3.77;;
50379;SDS011;37474;59.468;18.040;2023-11-19T09:36:17;5.18;;;2.85;;
50379;SDS011;37474;59.468;18.040;2023-11-19T09:38:45;7.00;;;3.37;;
50379;SDS011;37474;59.468;18.040;2023-11-19T09:41:13;4.37;;;2.87;;
50379;SDS011;37474;59.468;18.040;2023-11-19T09:43:42;4.13;;;3.40;;
50379;SDS011;37474;59.468;18.040;2023-11-19T09:46:10;5.60;;;4.57;;
50379;SDS011;37474;59.468;18.040;2023-11-19T09:48:40;3.13;;;2.28;;
50379;SDS011;37474;59.468;18.040;2023-11-19T09:51:11;4.55;;;3.20;;
50379;SDS011;37474;59.468;18.040;2023-11-19T09:53:42;3.80;;;2.70;;
50379;SDS011;37474;59.468;18.040;2023-11-19T09:56:10;4.97;;;3.03;;
50379;SDS011;37474;59.468;18.040;2023-11-19T09:58:41;4.73;;;3.17;;
50379;SDS011;37474;59.468;18.040;2023-11-19T10:01:09;4.20;;;3.07;;
50379;SDS011;37474;59.468;18.040;2023-11-19T10:03:41;5.20;;;3.07;;
50379;SDS011;37474;59.468;18.040;2023-11-19T10:06:12;3.23;;;2.50;;
50379;SDS011;37474;59.468;18.040;2023-11-19T10:08:42;4.50;;;3.00;;
50379;SDS011;37474;59.468;18.040;2023-11-19T10:11:10;4.53;;;2.80;;
50379;SDS011;37474;59.468;18.040;2023-11-19T10:13:40;3.10;;;2.60;;
50379;SDS011;37474;59.468;18.040;2023-11-19T10:16:09;3.93;;;2.50;;
50379;SDS011;37474;59.468;18.040;2023-11-19T10:21:10;4.80;;;2.40;;
50379;SDS011;37474;59.468;18.040;2023-11-19T10:23:54;3.27;;;2.67;;
50379;SDS011;37474;59.468;18.040;2023-11-19T10:26:26;3.07;;;2.43;;
50379;SDS011;37474;59.468;18.040;2023-11-19T10:28:55;5.53;;;2.50;;
50379;SDS011;37474;59.468;18.040;2023-11-19T10:31:23;3.13;;;2.50;;
50379;SDS011;37474;59.468;18.040;2023-11-19T10:33:55;5.30;;;3.00;;
50379;SDS011;37474;59.468;18.040;2023-11-19T10:36:38;5.32;;;3.33;;
50379;SDS011;37474;59.468;18.040;2023-11-19T10:39:08;5.13;;;3.30;;
50379;SDS011;37474;59.468;18.040;2023-11-19T10:41:36;4.27;;;3.30;;
50379;SDS011;37474;59.468;18.040;2023-11-19T10:44:04;3.97;;;2.87;;
50379;SDS011;37474;59.468;18.040;2023-11-19T10:46:36;6.03;;;3.00;;
50379;SDS011;37474;59.468;18.040;2023-11-19T10:49:05;6.13;;;3.27;;
50379;SDS011;37474;59.468;18.040;2023-11-19T10:51:34;4.73;;;2.90;;
50379;SDS011;37474;59.468;18.040;2023-11-19T10:54:04;4.80;;;3.10;;
50379;SDS011;37474;59.468;18.040;2023-11-19T10:56:33;4.67;;;3.30;;
50379;SDS011;37474;59.468;18.040;2023-11-19T10:59:02;3.70;;;2.90;;
50379;SDS011;37474;59.468;18.040;2023-11-19T11:01:49;3.57;;;2.70;;
50379;SDS011;37474;59.468;18.040;2023-11-19T11:04:22;3.87;;;2.70;;
50379;SDS011;37474;59.468;18.040;2023-11-19T11:06:51;5.18;;;3.10;;
50379;SDS011;37474;59.468;18.040;2023-11-19T11:09:24;5.80;;;3.10;;
50379;SDS011;37474;59.468;18.040;2023-11-19T11:11:54;7.67;;;3.00;;
50379;SDS011;37474;59.468;18.040;2023-11-19T11:14:23;4.30;;;3.00;;
50379;SDS011;37474;59.468;18.040;2023-11-19T11:16:53;4.07;;;3.13;;
50379;SDS011;37474;59.468;18.040;2023-11-19T11:19:21;3.90;;;2.90;;
50379;SDS011;37474;59.468;18.040;2023-11-19T11:21:51;4.27;;;2.87;;
50379;SDS011;37474;59.468;18.040;2023-11-19T11:24:35;4.50;;;3.07;;
50379;SDS011;37474;59.468;18.040;2023-11-19T11:30:26;4.00;;;2.97;;
50379;SDS011;37474;59.468;18.040;2023-11-19T11:33:06;5.90;;;3.27;;
50379;SDS011;37474;59.468;18.040;2023-11-19T11:35:50;7.87;;;3.10;;
50379;SDS011;37474;59.468;18.040;2023-11-19T11:38:28;4.90;;;3.20;;
50379;SDS011;37474;59.468;18.040;2023-11-19T11:41:17;4.87;;;3.00;;
50379;SDS011;37474;59.468;18.040;2023-11-19T11:43:47;6.72;;;2.97;;
50379;SDS011;37474;59.468;18.040;2023-11-19T11:49:26;5.83;;;3.73;;
50379;SDS011;37474;59.468;18.040;2023-11-19T11:52:03;11.33;;;6.83;;
50379;SDS011;37474;59.468;18.040;2023-11-19T11:54:32;10.67;;;7.17;;
50379;SDS011;37474;59.468;18.040;2023-11-19T11:57:08;6.23;;;3.37;;
50379;SDS011;37474;59.468;18.040;2023-11-19T11:59:43;5.83;;;3.40;;
50379;SDS011;37474;59.468;18.040;2023-11-19T12:02:13;4.63;;;3.90;;
50379;SDS011;37474;59.468;18.040;2023-11-19T12:04:43;6.82;;;2.97;;
50379;SDS011;37474;59.468;18.040;2023-11-19T12:07:16;4.07;;;2.80;;
50379;SDS011;37474;59.468;18.040;2023-11-19T12:09:51;4.70;;;2.67;;
50379;SDS011;37474;59.468;18.040;2023-11-19T12:12:27;3.53;;;2.67;;
50379;SDS011;37474;59.468;18.040;2023-11-19T12:15:06;3.63;;;2.63;;
50379;SDS011;37474;59.468;18.040;2023-11-19T12:17:37;3.67;;;2.83;;
50379;SDS011;37474;59.468;18.040;2023-11-19T12:20:11;3.87;;;3.00;;
50379;SDS011;37474;59.468;18.040;2023-11-19T12:22:39;4.13;;;2.50;;
50379;SDS011;37474;59.468;18.040;2023-11-19T12:25:09;3.33;;;2.30;;
50379;SDS011;37474;59.468;18.040;2023-11-19T12:27:42;4.40;;;2.55;;
50379;SDS011;37474;59.468;18.040;2023-11-19T12:30:12;3.47;;;2.30;;
50379;SDS011;37474;59.468;18.040;2023-11-19T12:32:44;2.87;;;2.10;;
50379;SDS011;37474;59.468;18.040;2023-11-19T12:35:13;4.63;;;2.20;;
50379;SDS011;37474;59.468;18.040;2023-11-19T12:37:41;4.43;;;2.30;;
50379;SDS011;37474;59.468;18.040;2023-11-19T12:40:11;5.67;;;2.40;;
50379;SDS011;37474;59.468;18.040;2023-11-19T12:42:45;3.07;;;2.30;;
50379;SDS011;37474;59.468;18.040;2023-11-19T12:45:14;4.75;;;2.75;;
50379;SDS011;37474;59.468;18.040;2023-11-19T12:47:43;4.77;;;3.07;;
50379;SDS011;37474;59.468;18.040;2023-11-19T12:50:13;5.33;;;3.27;;
50379;SDS011;37474;59.468;18.040;2023-11-19T12:52:54;4.53;;;2.70;;
50379;SDS011;37474;59.468;18.040;2023-11-19T12:55:26;6.93;;;2.90;;
50379;SDS011;37474;59.468;18.040;2023-11-19T12:57:58;5.33;;;3.20;;
50379;SDS011;37474;59.468;18.040;2023-11-19T13:00:29;4.78;;;2.58;;
50379;SDS011;37474;59.468;18.040;2023-11-19T13:03:08;3.97;;;2.83;;
50379;SDS011;37474;59.468;18.040;2023-11-19T13:05:36;6.17;;;2.40;;
50379;SDS011;37474;59.468;18.040;2023-11-19T13:08:04;4.10;;;2.40;;
50379;SDS011;37474;59.468;18.040;2023-11-19T13:10:49;6.67;;;2.50;;
50379;SDS011;37474;59.468;18.040;2023-11-19T13:13:21;3.97;;;2.20;;
50379;SDS011;37474;59.468;18.040;2023-11-19T13:15:49;3.22;;;2.50;;
50379;SDS011;37474;59.468;18.040;2023-11-19T13:18:17;5.03;;;2.50;;
50379;SDS011;37474;59.468;18.040;2023-11-19T13:20:45;3.27;;;2.20;;
50379;SDS011;37474;59.468;18.040;2023-11-19T13:23:13;3.43;;;2.30;;
50379;SDS011;37474;59.468;18.040;2023-11-19T13:25:43;4.38;;;2.55;;
50379;SDS011;37474;59.468;18.040;2023-11-19T13:28:12;5.63;;;3.20;;
50379;SDS011;37474;59.468;18.040;2023-11-19T13:30:44;7.17;;;3.13;;
50379;SDS011;37474;59.468;18.040;2023-11-19T13:33:12;4.23;;;3.03;;
50379;SDS011;37474;59.468;18.040;2023-11-19T13:35:40;5.00;;;2.83;;
50379;SDS011;37474;59.468;18.040;2023-11-19T13:38:08;9.33;;;4.00;;
50379;SDS011;37474;59.468;18.040;2023-11-19T13:40:36;9.83;;;4.23;;
50379;SDS011;37474;59.468;18.040;2023-11-19T13:43:05;8.53;;;4.33;;
50379;SDS011;37474;59.468;18.040;2023-11-19T13:45:38;7.73;;;4.33;;
50379;SDS011;37474;59.468;18.040;2023-11-19T13:48:07;6.43;;;3.97;;
50379;SDS011;37474;59.468;18.040;2023-11-19T13:50:35;5.82;;;3.85;;
50379;SDS011;37474;59.468;18.040;2023-11-19T13:53:03;4.53;;;3.30;;
50379;SDS011;37474;59.468;18.040;2023-11-19T13:55:32;6.17;;;3.70;;
50379;SDS011;37474;59.468;18.040;2023-11-19T13:58:00;8.23;;;3.70;;
50379;SDS011;37474;59.468;18.040;2023-11-19T14:00:28;10.97;;;4.50;;
50379;SDS011;37474;59.468;18.040;2023-11-19T14:02:56;6.80;;;3.80;;
50379;SDS011;37474;59.468;18.040;2023-11-19T14:05:25;7.00;;;4.30;;
50379;SDS011;37474;59.468;18.040;2023-11-19T14:07:57;5.67;;;3.73;;
50379;SDS011;37474;59.468;18.040;2023-11-19T14:10:25;5.83;;;3.57;;
50379;SDS011;37474;59.468;18.040;2023-11-19T14:12:53;8.07;;;4.10;;
50379;SDS011;37474;59.468;18.040;2023-11-19T14:15:21;5.33;;;3.93;;
50379;SDS011;37474;59.468;18.040;2023-11-19T14:17:49;5.03;;;3.57;;
50379;SDS011;37474;59.468;18.040;2023-11-19T14:20:17;9.47;;;4.20;;
50379;SDS011;37474;59.468;18.040;2023-11-19T14:22:47;9.57;;;3.77;;
50379;SDS011;37474;59.468;18.040;2023-11-19T14:25:16;6.23;;;3.47;;
50379;SDS011;37474;59.468;18.040;2023-11-19T14:27:44;7.47;;;3.77;;
50379;SDS011;37474;59.468;18.040;2023-11-19T14:30:14;4.60;;;3.70;;
50379;SDS011;37474;59.468;18.040;2023-11-19T14:32:42;6.83;;;4.53;;
50379;SDS011;37474;59.468;18.040;2023-11-19T14:35:12;5.57;;;3.83;;
50379;SDS011;37474;59.468;18.040;2023-11-19T14:37:40;9.93;;;4.20;;
50379;SDS011;37474;59.468;18.040;2023-11-19T14:40:10;17.13;;;12.10;;
50379;SDS011;37474;59.468;18.040;2023-11-19T14:42:38;6.78;;;4.80;;
50379;SDS011;37474;59.468;18.040;2023-11-19T14:45:07;7.77;;;5.40;;
50379;SDS011;37474;59.468;18.040;2023-11-19T14:47:38;7.73;;;4.40;;
50379;SDS011;37474;59.468;18.040;2023-11-19T14:50:07;7.33;;;4.60;;
50379;SDS011;37474;59.468;18.040;2023-11-19T14:52:35;8.13;;;4.33;;
50379;SDS011;37474;59.468;18.040;2023-11-19T14:55:04;7.87;;;3.90;;
50379;SDS011;37474;59.468;18.040;2023-11-19T14:57:34;8.03;;;4.30;;
50379;SDS011;37474;59.468;18.040;2023-11-19T15:00:02;5.93;;;3.67;;
50379;SDS011;37474;59.468;18.040;2023-11-19T15:02:39;5.87;;;4.07;;